sensor_id;sensor_type;location;lat;lon;timestamp;temperature;humidity
21246;DHT22;10781;50.928;4.440;2023-09-07T00:02:18;22.60;99.90
21246;DHT22;10781;50.928;4.440;2023-09-07T00:04:43;22.60;99.90
21246;DHT22;10781;50.928;4.440;2023-09-07T00:07:09;22.60;99.90
21246;DHT22;10781;50.928;4.440;2023-09-07T00:09:34;22.50;99.90
21246;DHT22;10781;50.928;4.440;2023-09-07T00:12:00;22.50;99.90
21246;DHT22;10781;50.928;4.440;2023-09-07T00:14:26;22.40;99.90
21246;DHT22;10781;50.928;4.440;2023-09-07T00:16:51;22.40;99.90
21246;DHT22;10781;50.928;4.440;2023-09-07T00:19:17;22.30;99.90
21246;DHT22;10781;50.928;4.440;2023-09-07T00:21:43;22.30;99.90
21246;DHT22;10781;50.928;4.440;2023-09-07T00:24:08;22.20;99.90
21246;DHT22;10781;50.928;4.440;2023-09-07T00:26:35;22.30;99.90
21246;DHT22;10781;50.928;4.440;2023-09-07T00:29:01;22.20;99.90
21246;DHT22;10781;50.928;4.440;2023-09-07T00:31:26;22.20;99.90
21246;DHT22;10781;50.928;4.440;2023-09-07T00:33:52;22.10;99.90
21246;DHT22;10781;50.928;4.440;2023-09-07T00:36:18;22.10;99.90
21246;DHT22;10781;50.928;4.440;2023-09-07T00:38:44;22.10;99.90
21246;DHT22;10781;50.928;4.440;2023-09-07T00:41:11;22.00;99.90
21246;DHT22;10781;50.928;4.440;2023-09-07T00:43:37;21.80;99.90
21246;DHT22;10781;50.928;4.440;2023-09-07T00:46:05;21.80;99.90
21246;DHT22;10781;50.928;4.440;2023-09-07T00:48:30;21.70;99.90
21246;DHT22;10781;50.928;4.440;2023-09-07T00:50:56;21.70;99.90
21246;DHT22;10781;50.928;4.440;2023-09-07T00:53:22;21.80;99.90
21246;DHT22;10781;50.928;4.440;2023-09-07T00:55:50;21.70;99.90
21246;DHT22;10781;50.928;4.440;2023-09-07T00:58:16;21.70;99.90
21246;DHT22;10781;50.928;4.440;2023-09-07T01:00:41;21.70;99.90
21246;DHT22;10781;50.928;4.440;2023-09-07T01:03:08;21.70;99.90
21246;DHT22;10781;50.928;4.440;2023-09-07T01:05:56;21.70;99.90
21246;DHT22;10781;50.928;4.440;2023-09-07T01:08:26;21.70;99.90
21246;DHT22;10781;50.928;4.440;2023-09-07T01:10:53;21.70;99.90
21246;DHT22;10781;50.928;4.440;2023-09-07T01:13:19;21.60;99.90
21246;DHT22;10781;50.928;4.440;2023-09-07T01:15:45;21.50;99.90
21246;DHT22;10781;50.928;4.440;2023-09-07T01:18:11;21.30;99.90
21246;DHT22;10781;50.928;4.440;2023-09-07T01:20:40;21.30;99.90
21246;DHT22;10781;50.928;4.440;2023-09-07T01:23:07;21.10;99.90
21246;DHT22;10781;50.928;4.440;2023-09-07T01:25:34;21.20;99.90
21246;DHT22;10781;50.928;4.440;2023-09-07T01:27:59;21.20;99.90
21246;DHT22;10781;50.928;4.440;2023-09-07T01:30:27;21.30;99.90
21246;DHT22;10781;50.928;4.440;2023-09-07T01:32:53;21.20;99.90
21246;DHT22;10781;50.928;4.440;2023-09-07T01:35:19;21.20;99.90
21246;DHT22;10781;50.928;4.440;2023-09-07T01:37:47;21.20;99.90
21246;DHT22;10781;50.928;4.440;2023-09-07T01:40:13;21.10;99.90
21246;DHT22;10781;50.928;4.440;2023-09-07T01:42:39;21.10;99.90
21246;DHT22;10781;50.928;4.440;2023-09-07T01:45:05;21.00;99.90
21246;DHT22;10781;50.928;4.440;2023-09-07T01:47:31;21.00;99.90
21246;DHT22;10781;50.928;4.440;2023-09-07T01:49:57;21.10;99.90
21246;DHT22;10781;50.928;4.440;2023-09-07T01:52:22;21.10;99.90
21246;DHT22;10781;50.928;4.440;2023-09-07T01:54:48;21.10;99.90
21246;DHT22;10781;50.928;4.440;2023-09-07T01:57:13;21.00;99.90
21246;DHT22;10781;50.928;4.440;2023-09-07T01:59:39;20.90;99.90
21246;DHT22;10781;50.928;4.440;2023-09-07T02:02:05;20.90;99.90
21246;DHT22;10781;50.928;4.440;2023-09-07T02:04:30;20.90;99.90
21246;DHT22;10781;50.928;4.440;2023-09-07T02:06:56;20.90;99.90
21246;DHT22;10781;50.928;4.440;2023-09-07T02:09:22;20.90;99.90
21246;DHT22;10781;50.928;4.440;2023-09-07T02:11:48;20.90;99.90
21246;DHT22;10781;50.928;4.440;2023-09-07T02:14:13;20.90;99.90
21246;DHT22;10781;50.928;4.440;2023-09-07T02:16:39;21.00;99.90
21246;DHT22;10781;50.928;4.440;2023-09-07T02:19:06;21.00;99.90
21246;DHT22;10781;50.928;4.440;2023-09-07T02:21:32;20.80;99.90
21246;DHT22;10781;50.928;4.440;2023-09-07T02:23:58;20.80;99.90
21246;DHT22;10781;50.928;4.440;2023-09-07T02:26:24;20.90;99.90
21246;DHT22;10781;50.928;4.440;2023-09-07T02:28:49;20.90;99.90
21246;DHT22;10781;50.928;4.440;2023-09-07T02:31:15;20.80;99.90
21246;DHT22;10781;50.928;4.440;2023-09-07T02:33:40;20.80;99.90
21246;DHT22;10781;50.928;4.440;2023-09-07T02:36:06;20.80;99.90
21246;DHT22;10781;50.928;4.440;2023-09-07T02:38:32;20.90;99.90
21246;DHT22;10781;50.928;4.440;2023-09-07T02:40:58;20.90;99.90
21246;DHT22;10781;50.928;4.440;2023-09-07T02:43:23;20.80;99.90
21246;DHT22;10781;50.928;4.440;2023-09-07T02:45:50;20.80;99.90
21246;DHT22;10781;50.928;4.440;2023-09-07T02:48:15;20.80;99.90
21246;DHT22;10781;50.928;4.440;2023-09-07T02:50:41;20.70;99.90
21246;DHT22;10781;50.928;4.440;2023-09-07T02:53:08;20.80;99.90
21246;DHT22;10781;50.928;4.440;2023-09-07T02:55:33;20.80;99.90
21246;DHT22;10781;50.928;4.440;2023-09-07T02:58:02;20.80;99.90
21246;DHT22;10781;50.928;4.440;2023-09-07T03:00:28;20.70;99.90
21246;DHT22;10781;50.928;4.440;2023-09-07T03:02:54;20.60;99.90
21246;DHT22;10781;50.928;4.440;2023-09-07T03:05:19;20.50;99.90
21246;DHT22;10781;50.928;4.440;2023-09-07T03:07:46;20.50;99.90
21246;DHT22;10781;50.928;4.440;2023-09-07T03:10:12;20.50;99.90
21246;DHT22;10781;50.928;4.440;2023-09-07T03:12:38;20.60;99.90
21246;DHT22;10781;50.928;4.440;2023-09-07T03:15:04;20.60;99.90
21246;DHT22;10781;50.928;4.440;2023-09-07T03:17:30;20.60;99.90
21246;DHT22;10781;50.928;4.440;2023-09-07T03:19:56;20.60;99.90
21246;DHT22;10781;50.928;4.440;2023-09-07T03:22:25;20.50;99.90
21246;DHT22;10781;50.928;4.440;2023-09-07T03:24:51;20.30;99.90
21246;DHT22;10781;50.928;4.440;2023-09-07T03:27:17;20.30;99.90
21246;DHT22;10781;50.928;4.440;2023-09-07T03:29:44;20.30;99.90
21246;DHT22;10781;50.928;4.440;2023-09-07T03:32:10;20.40;99.90
21246;DHT22;10781;50.928;4.440;2023-09-07T03:34:36;20.50;99.90
21246;DHT22;10781;50.928;4.440;2023-09-07T03:37:01;20.50;99.90
21246;DHT22;10781;50.928;4.440;2023-09-07T03:39:27;20.40;99.90
21246;DHT22;10781;50.928;4.440;2023-09-07T03:41:53;20.30;99.90
21246;DHT22;10781;50.928;4.440;2023-09-07T03:44:19;20.50;99.90
21246;DHT22;10781;50.928;4.440;2023-09-07T03:46:46;20.40;99.90
21246;DHT22;10781;50.928;4.440;2023-09-07T03:49:11;20.30;99.90
21246;DHT22;10781;50.928;4.440;2023-09-07T03:51:37;20.20;99.90
21246;DHT22;10781;50.928;4.440;2023-09-07T03:54:03;20.20;99.90
21246;DHT22;10781;50.928;4.440;2023-09-07T03:56:28;20.30;99.90
21246;DHT22;10781;50.928;4.440;2023-09-07T03:58:54;20.20;99.90
21246;DHT22;10781;50.928;4.440;2023-09-07T04:01:20;20.20;99.90
21246;DHT22;10781;50.928;4.440;2023-09-07T04:03:45;20.20;99.90
21246;DHT22;10781;50.928;4.440;2023-09-07T04:06:11;20.20;99.90
21246;DHT22;10781;50.928;4.440;2023-09-07T04:08:37;20.20;99.90
21246;DHT22;10781;50.928;4.440;2023-09-07T04:11:04;20.10;99.90
21246;DHT22;10781;50.928;4.440;2023-09-07T04:13:30;20.20;99.90
21246;DHT22;10781;50.928;4.440;2023-09-07T04:15:56;20.30;99.90
21246;DHT22;10781;50.928;4.440;2023-09-07T04:18:22;20.30;99.90
21246;DHT22;10781;50.928;4.440;2023-09-07T04:20:47;20.10;99.90
21246;DHT22;10781;50.928;4.440;2023-09-07T04:23:13;20.10;99.90
21246;DHT22;10781;50.928;4.440;2023-09-07T04:25:38;20.10;99.90
21246;DHT22;10781;50.928;4.440;2023-09-07T04:28:05;20.20;99.90
21246;DHT22;10781;50.928;4.440;2023-09-07T04:30:31;20.20;99.90
21246;DHT22;10781;50.928;4.440;2023-09-07T04:32:57;20.00;99.90
21246;DHT22;10781;50.928;4.440;2023-09-07T04:35:29;20.00;99.90
21246;DHT22;10781;50.928;4.440;2023-09-07T04:37:58;19.90;99.90
21246;DHT22;10781;50.928;4.440;2023-09-07T04:40:24;19.80;99.90
21246;DHT22;10781;50.928;4.440;2023-09-07T04:42:50;20.00;99.90
21246;DHT22;10781;50.928;4.440;2023-09-07T04:45:16;20.00;99.90
21246;DHT22;10781;50.928;4.440;2023-09-07T04:47:42;20.00;99.90
21246;DHT22;10781;50.928;4.440;2023-09-07T04:50:08;20.00;99.90
21246;DHT22;10781;50.928;4.440;2023-09-07T04:52:34;19.90;99.90
21246;DHT22;10781;50.928;4.440;2023-09-07T04:55:00;19.90;99.90
21246;DHT22;10781;50.928;4.440;2023-09-07T04:57:26;19.90;99.90
21246;DHT22;10781;50.928;4.440;2023-09-07T04:59:51;19.90;99.90
21246;DHT22;10781;50.928;4.440;2023-09-07T05:02:17;19.80;99.90
21246;DHT22;10781;50.928;4.440;2023-09-07T05:04:44;19.70;99.90
21246;DHT22;10781;50.928;4.440;2023-09-07T05:07:09;19.70;99.90
21246;DHT22;10781;50.928;4.440;2023-09-07T05:09:35;19.70;99.90
21246;DHT22;10781;50.928;4.440;2023-09-07T05:12:01;19.80;99.90
21246;DHT22;10781;50.928;4.440;2023-09-07T05:14:26;19.80;99.90
21246;DHT22;10781;50.928;4.440;2023-09-07T05:16:52;19.80;99.90
21246;DHT22;10781;50.928;4.440;2023-09-07T05:19:18;19.70;99.90
21246;DHT22;10781;50.928;4.440;2023-09-07T05:21:43;19.80;99.90
21246;DHT22;10781;50.928;4.440;2023-09-07T05:24:09;19.90;99.90
21246;DHT22;10781;50.928;4.440;2023-09-07T05:26:35;19.80;99.90
21246;DHT22;10781;50.928;4.440;2023-09-07T05:29:00;19.90;99.90
21246;DHT22;10781;50.928;4.440;2023-09-07T05:31:26;19.80;99.90
21246;DHT22;10781;50.928;4.440;2023-09-07T05:33:52;19.70;99.90
21246;DHT22;10781;50.928;4.440;2023-09-07T05:36:18;19.70;99.90
21246;DHT22;10781;50.928;4.440;2023-09-07T05:38:43;19.80;99.90
21246;DHT22;10781;50.928;4.440;2023-09-07T05:41:09;19.90;99.90
21246;DHT22;10781;50.928;4.440;2023-09-07T05:43:35;19.80;99.90
21246;DHT22;10781;50.928;4.440;2023-09-07T05:46:01;19.80;99.90
21246;DHT22;10781;50.928;4.440;2023-09-07T05:48:27;19.70;99.90
21246;DHT22;10781;50.928;4.440;2023-09-07T05:50:52;19.80;99.90
21246;DHT22;10781;50.928;4.440;2023-09-07T05:53:19;19.80;99.90
21246;DHT22;10781;50.928;4.440;2023-09-07T05:55:47;19.90;99.90
21246;DHT22;10781;50.928;4.440;2023-09-07T05:58:13;19.90;99.90
21246;DHT22;10781;50.928;4.440;2023-09-07T06:00:40;20.00;99.90
21246;DHT22;10781;50.928;4.440;2023-09-07T06:03:07;20.10;99.90
21246;DHT22;10781;50.928;4.440;2023-09-07T06:05:34;20.20;99.90
21246;DHT22;10781;50.928;4.440;2023-09-07T06:08:01;20.30;99.90
21246;DHT22;10781;50.928;4.440;2023-09-07T06:10:28;20.40;99.90
21246;DHT22;10781;50.928;4.440;2023-09-07T06:12:54;20.50;99.90
21246;DHT22;10781;50.928;4.440;2023-09-07T06:15:20;20.20;99.90
21246;DHT22;10781;50.928;4.440;2023-09-07T06:17:46;20.30;99.90
21246;DHT22;10781;50.928;4.440;2023-09-07T06:20:12;20.50;99.90
21246;DHT22;10781;50.928;4.440;2023-09-07T06:22:38;21.30;99.90
21246;DHT22;10781;50.928;4.440;2023-09-07T06:25:04;22.50;99.90
21246;DHT22;10781;50.928;4.440;2023-09-07T06:27:29;23.70;99.90
21246;DHT22;10781;50.928;4.440;2023-09-07T06:29:55;24.70;99.90
21246;DHT22;10781;50.928;4.440;2023-09-07T06:32:20;25.50;99.90
21246;DHT22;10781;50.928;4.440;2023-09-07T06:34:46;26.40;99.90
21246;DHT22;10781;50.928;4.440;2023-09-07T06:37:12;27.10;99.90
21246;DHT22;10781;50.928;4.440;2023-09-07T06:39:38;27.60;99.90
21246;DHT22;10781;50.928;4.440;2023-09-07T06:42:04;28.00;99.90
21246;DHT22;10781;50.928;4.440;2023-09-07T06:44:30;28.50;99.90
21246;DHT22;10781;50.928;4.440;2023-09-07T06:46:56;29.00;99.90
21246;DHT22;10781;50.928;4.440;2023-09-07T06:49:21;29.50;99.90
21246;DHT22;10781;50.928;4.440;2023-09-07T06:51:47;29.90;99.90
21246;DHT22;10781;50.928;4.440;2023-09-07T06:54:13;30.30;99.90
21246;DHT22;10781;50.928;4.440;2023-09-07T06:56:38;30.50;99.90
21246;DHT22;10781;50.928;4.440;2023-09-07T06:59:04;31.00;99.90
21246;DHT22;10781;50.928;4.440;2023-09-07T07:01:30;31.10;99.90
21246;DHT22;10781;50.928;4.440;2023-09-07T07:03:55;31.50;99.90
21246;DHT22;10781;50.928;4.440;2023-09-07T07:06:22;31.90;99.90
21246;DHT22;10781;50.928;4.440;2023-09-07T07:08:48;32.10;99.90
21246;DHT22;10781;50.928;4.440;2023-09-07T07:11:14;32.40;99.90
21246;DHT22;10781;50.928;4.440;2023-09-07T07:13:39;32.80;99.90
21246;DHT22;10781;50.928;4.440;2023-09-07T07:16:05;33.30;99.90
21246;DHT22;10781;50.928;4.440;2023-09-07T07:18:31;33.70;99.90
21246;DHT22;10781;50.928;4.440;2023-09-07T07:20:57;33.90;99.90
21246;DHT22;10781;50.928;4.440;2023-09-07T07:23:22;34.00;99.10
21246;DHT22;10781;50.928;4.440;2023-09-07T07:25:48;34.40;98.60
21246;DHT22;10781;50.928;4.440;2023-09-07T07:28:13;34.90;96.80
21246;DHT22;10781;50.928;4.440;2023-09-07T07:30:39;35.30;95.80
21246;DHT22;10781;50.928;4.440;2023-09-07T07:33:08;35.70;94.90
21246;DHT22;10781;50.928;4.440;2023-09-07T07:35:34;36.10;93.30
21246;DHT22;10781;50.928;4.440;2023-09-07T07:38:01;36.10;91.60
21246;DHT22;10781;50.928;4.440;2023-09-07T07:40:27;36.20;90.60
21246;DHT22;10781;50.928;4.440;2023-09-07T07:42:53;35.80;90.40
21246;DHT22;10781;50.928;4.440;2023-09-07T07:45:19;36.10;89.50
21246;DHT22;10781;50.928;4.440;2023-09-07T07:47:46;35.80;90.90
21246;DHT22;10781;50.928;4.440;2023-09-07T07:50:11;36.30;88.90
21246;DHT22;10781;50.928;4.440;2023-09-07T07:52:37;36.30;86.30
21246;DHT22;10781;50.928;4.440;2023-09-07T07:55:03;36.80;88.10
21246;DHT22;10781;50.928;4.440;2023-09-07T07:57:29;37.40;84.20
21246;DHT22;10781;50.928;4.440;2023-09-07T07:59:56;38.10;81.60
21246;DHT22;10781;50.928;4.440;2023-09-07T08:02:21;38.80;79.00
21246;DHT22;10781;50.928;4.440;2023-09-07T08:04:47;38.60;76.20
21246;DHT22;10781;50.928;4.440;2023-09-07T08:07:13;38.90;75.80
21246;DHT22;10781;50.928;4.440;2023-09-07T08:09:38;39.30;73.90
21246;DHT22;10781;50.928;4.440;2023-09-07T08:12:05;39.10;71.70
21246;DHT22;10781;50.928;4.440;2023-09-07T08:14:31;39.00;71.20
21246;DHT22;10781;50.928;4.440;2023-09-07T08:16:57;38.70;69.70
21246;DHT22;10781;50.928;4.440;2023-09-07T08:19:23;39.40;71.40
21246;DHT22;10781;50.928;4.440;2023-09-07T08:21:49;40.10;68.10
21246;DHT22;10781;50.928;4.440;2023-09-07T08:24:14;40.30;67.40
21246;DHT22;10781;50.928;4.440;2023-09-07T08:26:40;40.80;63.70
21246;DHT22;10781;50.928;4.440;2023-09-07T08:29:06;40.80;64.80
21246;DHT22;10781;50.928;4.440;2023-09-07T08:31:34;40.40;62.90
21246;DHT22;10781;50.928;4.440;2023-09-07T08:34:01;39.30;64.50
21246;DHT22;10781;50.928;4.440;2023-09-07T08:36:29;39.50;64.20
21246;DHT22;10781;50.928;4.440;2023-09-07T08:38:57;39.70;63.20
21246;DHT22;10781;50.928;4.440;2023-09-07T08:41:26;39.50;64.40
21246;DHT22;10781;50.928;4.440;2023-09-07T08:43:54;39.40;64.50
21246;DHT22;10781;50.928;4.440;2023-09-07T08:46:20;39.40;63.10
21246;DHT22;10781;50.928;4.440;2023-09-07T08:48:49;40.20;63.50
21246;DHT22;10781;50.928;4.440;2023-09-07T08:51:16;40.40;61.80
21246;DHT22;10781;50.928;4.440;2023-09-07T08:53:42;39.80;64.00
21246;DHT22;10781;50.928;4.440;2023-09-07T08:56:16;40.00;61.10
21246;DHT22;10781;50.928;4.440;2023-09-07T08:58:42;41.60;61.30
21246;DHT22;10781;50.928;4.440;2023-09-07T09:01:08;41.50;59.30
21246;DHT22;10781;50.928;4.440;2023-09-07T09:03:38;42.10;58.10
21246;DHT22;10781;50.928;4.440;2023-09-07T09:06:04;42.90;57.40
21246;DHT22;10781;50.928;4.440;2023-09-07T09:08:42;41.90;55.20
21246;DHT22;10781;50.928;4.440;2023-09-07T09:11:07;40.10;56.10
21246;DHT22;10781;50.928;4.440;2023-09-07T09:13:34;39.10;56.40
21246;DHT22;10781;50.928;4.440;2023-09-07T09:16:00;38.90;56.20
21246;DHT22;10781;50.928;4.440;2023-09-07T09:18:29;39.10;56.00
21246;DHT22;10781;50.928;4.440;2023-09-07T09:20:55;38.60;56.40
21246;DHT22;10781;50.928;4.440;2023-09-07T09:23:21;38.80;57.40
21246;DHT22;10781;50.928;4.440;2023-09-07T09:25:50;40.10;55.80
21246;DHT22;10781;50.928;4.440;2023-09-07T09:28:16;41.00;55.50
21246;DHT22;10781;50.928;4.440;2023-09-07T09:30:42;42.00;54.20
21246;DHT22;10781;50.928;4.440;2023-09-07T09:33:10;41.60;52.30
21246;DHT22;10781;50.928;4.440;2023-09-07T09:35:37;41.80;51.20
21246;DHT22;10781;50.928;4.440;2023-09-07T09:38:04;42.60;51.00
21246;DHT22;10781;50.928;4.440;2023-09-07T09:40:31;42.60;50.70
21246;DHT22;10781;50.928;4.440;2023-09-07T09:42:57;41.40;50.50
21246;DHT22;10781;50.928;4.440;2023-09-07T09:45:26;41.40;51.70
21246;DHT22;10781;50.928;4.440;2023-09-07T09:47:54;40.90;53.20
21246;DHT22;10781;50.928;4.440;2023-09-07T09:50:22;41.80;53.90
21246;DHT22;10781;50.928;4.440;2023-09-07T09:52:48;43.40;50.60
21246;DHT22;10781;50.928;4.440;2023-09-07T09:55:15;42.90;48.60
21246;DHT22;10781;50.928;4.440;2023-09-07T09:57:41;43.10;49.10
21246;DHT22;10781;50.928;4.440;2023-09-07T10:00:08;44.10;47.40
21246;DHT22;10781;50.928;4.440;2023-09-07T10:03:08;43.60;47.30
21246;DHT22;10781;50.928;4.440;2023-09-07T10:05:36;44.50;45.40
21246;DHT22;10781;50.928;4.440;2023-09-07T10:08:09;43.60;45.80
21246;DHT22;10781;50.928;4.440;2023-09-07T10:10:36;42.60;46.90
21246;DHT22;10781;50.928;4.440;2023-09-07T10:13:02;43.10;47.00
21246;DHT22;10781;50.928;4.440;2023-09-07T10:15:29;41.80;48.00
21246;DHT22;10781;50.928;4.440;2023-09-07T10:18:11;42.20;46.90
21246;DHT22;10781;50.928;4.440;2023-09-07T10:23:14;44.30;46.70
21246;DHT22;10781;50.928;4.440;2023-09-07T10:25:40;44.50;45.40
21246;DHT22;10781;50.928;4.440;2023-09-07T10:28:05;44.20;44.70
21246;DHT22;10781;50.928;4.440;2023-09-07T10:30:31;43.40;45.20
21246;DHT22;10781;50.928;4.440;2023-09-07T10:32:58;43.80;45.90
21246;DHT22;10781;50.928;4.440;2023-09-07T10:35:24;42.90;44.30
21246;DHT22;10781;50.928;4.440;2023-09-07T10:37:51;43.00;45.50
21246;DHT22;10781;50.928;4.440;2023-09-07T10:40:21;42.80;46.60
21246;DHT22;10781;50.928;4.440;2023-09-07T10:42:47;42.60;45.80
21246;DHT22;10781;50.928;4.440;2023-09-07T10:45:16;43.50;44.80
21246;DHT22;10781;50.928;4.440;2023-09-07T10:47:45;44.90;44.60
21246;DHT22;10781;50.928;4.440;2023-09-07T10:50:12;45.40;43.30
21246;DHT22;10781;50.928;4.440;2023-09-07T10:52:40;44.80;44.10
21246;DHT22;10781;50.928;4.440;2023-09-07T10:55:07;44.70;44.40
21246;DHT22;10781;50.928;4.440;2023-09-07T10:57:41;44.90;43.10
21246;DHT22;10781;50.928;4.440;2023-09-07T11:00:08;45.60;43.40
21246;DHT22;10781;50.928;4.440;2023-09-07T11:02:39;43.40;43.60
21246;DHT22;10781;50.928;4.440;2023-09-07T11:05:06;43.00;44.60
21246;DHT22;10781;50.928;4.440;2023-09-07T11:07:33;44.10;45.30
21246;DHT22;10781;50.928;4.440;2023-09-07T11:09:58;45.10;45.00
21246;DHT22;10781;50.928;4.440;2023-09-07T11:12:24;45.00;42.90
21246;DHT22;10781;50.928;4.440;2023-09-07T11:14:51;43.50;45.20
21246;DHT22;10781;50.928;4.440;2023-09-07T11:17:17;44.70;44.40
21246;DHT22;10781;50.928;4.440;2023-09-07T11:19:43;44.70;43.00
21246;DHT22;10781;50.928;4.440;2023-09-07T11:22:12;44.10;44.70
21246;DHT22;10781;50.928;4.440;2023-09-07T11:24:39;44.10;43.10
21246;DHT22;10781;50.928;4.440;2023-09-07T11:27:05;43.00;45.20
21246;DHT22;10781;50.928;4.440;2023-09-07T11:29:31;44.40;44.30
21246;DHT22;10781;50.928;4.440;2023-09-07T11:32:10;45.50;43.80
21246;DHT22;10781;50.928;4.440;2023-09-07T11:34:50;46.00;44.00
21246;DHT22;10781;50.928;4.440;2023-09-07T11:37:25;45.40;42.60
21246;DHT22;10781;50.928;4.440;2023-09-07T11:39:51;45.00;42.00
21246;DHT22;10781;50.928;4.440;2023-09-07T11:42:16;45.40;42.30
21246;DHT22;10781;50.928;4.440;2023-09-07T11:44:42;46.50;41.50
21246;DHT22;10781;50.928;4.440;2023-09-07T11:47:08;47.20;41.30
21246;DHT22;10781;50.928;4.440;2023-09-07T11:49:34;46.10;41.90
21246;DHT22;10781;50.928;4.440;2023-09-07T11:52:00;46.60;42.10
21246;DHT22;10781;50.928;4.440;2023-09-07T11:54:25;47.40;40.40
21246;DHT22;10781;50.928;4.440;2023-09-07T11:56:51;45.80;41.80
21246;DHT22;10781;50.928;4.440;2023-09-07T11:59:17;45.50;40.50
21246;DHT22;10781;50.928;4.440;2023-09-07T12:01:43;46.00;40.80
21246;DHT22;10781;50.928;4.440;2023-09-07T12:04:09;44.40;41.20
21246;DHT22;10781;50.928;4.440;2023-09-07T12:06:34;43.10;42.90
21246;DHT22;10781;50.928;4.440;2023-09-07T12:09:02;41.90;44.40
21246;DHT22;10781;50.928;4.440;2023-09-07T12:11:28;43.00;44.80
21246;DHT22;10781;50.928;4.440;2023-09-07T12:13:54;43.20;42.90
21246;DHT22;10781;50.928;4.440;2023-09-07T12:16:19;43.90;41.70
21246;DHT22;10781;50.928;4.440;2023-09-07T12:18:45;44.30;41.50
21246;DHT22;10781;50.928;4.440;2023-09-07T12:21:11;41.70;42.80
21246;DHT22;10781;50.928;4.440;2023-09-07T12:23:36;43.10;44.40
21246;DHT22;10781;50.928;4.440;2023-09-07T12:26:02;44.40;42.80
21246;DHT22;10781;50.928;4.440;2023-09-07T12:28:30;43.80;42.50
21246;DHT22;10781;50.928;4.440;2023-09-07T12:30:57;45.30;42.50
21246;DHT22;10781;50.928;4.440;2023-09-07T12:33:24;46.60;43.20
21246;DHT22;10781;50.928;4.440;2023-09-07T12:35:50;46.10;40.00
21246;DHT22;10781;50.928;4.440;2023-09-07T12:38:16;46.30;40.00
21246;DHT22;10781;50.928;4.440;2023-09-07T12:40:46;47.60;41.10
21246;DHT22;10781;50.928;4.440;2023-09-07T12:43:12;47.00;39.50
21246;DHT22;10781;50.928;4.440;2023-09-07T12:45:37;46.30;39.50
21246;DHT22;10781;50.928;4.440;2023-09-07T12:48:03;46.40;40.50
21246;DHT22;10781;50.928;4.440;2023-09-07T12:50:29;46.40;39.80
21246;DHT22;10781;50.928;4.440;2023-09-07T12:52:54;46.90;39.40
21246;DHT22;10781;50.928;4.440;2023-09-07T12:55:20;46.00;39.80
21246;DHT22;10781;50.928;4.440;2023-09-07T12:57:46;45.60;39.80
21246;DHT22;10781;50.928;4.440;2023-09-07T13:00:12;46.10;40.50
21246;DHT22;10781;50.928;4.440;2023-09-07T13:02:38;45.40;40.80
21246;DHT22;10781;50.928;4.440;2023-09-07T13:05:04;45.90;39.90
21246;DHT22;10781;50.928;4.440;2023-09-07T13:07:31;45.10;40.20
21246;DHT22;10781;50.928;4.440;2023-09-07T13:09:58;45.00;39.60
21246;DHT22;10781;50.928;4.440;2023-09-07T13:12:24;44.60;39.70
21246;DHT22;10781;50.928;4.440;2023-09-07T13:14:49;44.10;40.20
21246;DHT22;10781;50.928;4.440;2023-09-07T13:17:15;41.80;44.00
21246;DHT22;10781;50.928;4.440;2023-09-07T13:19:41;41.60;44.80
21246;DHT22;10781;50.928;4.440;2023-09-07T13:22:08;41.20;44.40
21246;DHT22;10781;50.928;4.440;2023-09-07T13:24:34;41.80;45.80
21246;DHT22;10781;50.928;4.440;2023-09-07T13:26:59;40.50;45.10
21246;DHT22;10781;50.928;4.440;2023-09-07T13:29:25;39.60;46.30
21246;DHT22;10781;50.928;4.440;2023-09-07T13:31:52;39.40;46.70
21246;DHT22;10781;50.928;4.440;2023-09-07T13:34:20;40.50;47.80
21246;DHT22;10781;50.928;4.440;2023-09-07T13:36:46;40.50;48.20
21246;DHT22;10781;50.928;4.440;2023-09-07T13:39:12;42.00;47.60
21246;DHT22;10781;50.928;4.440;2023-09-07T13:41:37;42.60;47.10
21246;DHT22;10781;50.928;4.440;2023-09-07T13:44:03;42.90;45.70
21246;DHT22;10781;50.928;4.440;2023-09-07T13:46:29;42.80;46.60
21246;DHT22;10781;50.928;4.440;2023-09-07T13:48:55;43.30;45.30
21246;DHT22;10781;50.928;4.440;2023-09-07T13:51:20;43.70;44.90
21246;DHT22;10781;50.928;4.440;2023-09-07T13:53:46;42.80;44.90
21246;DHT22;10781;50.928;4.440;2023-09-07T13:56:12;41.50;45.60
21246;DHT22;10781;50.928;4.440;2023-09-07T13:58:37;43.10;46.00
21246;DHT22;10781;50.928;4.440;2023-09-07T14:01:03;42.40;45.80
21246;DHT22;10781;50.928;4.440;2023-09-07T14:03:28;43.50;44.60
21246;DHT22;10781;50.928;4.440;2023-09-07T14:05:54;44.00;44.30
21246;DHT22;10781;50.928;4.440;2023-09-07T14:08:20;43.80;47.90
21246;DHT22;10781;50.928;4.440;2023-09-07T14:10:49;44.20;45.20
21246;DHT22;10781;50.928;4.440;2023-09-07T14:13:15;44.50;45.00
21246;DHT22;10781;50.928;4.440;2023-09-07T14:15:40;45.00;44.20
21246;DHT22;10781;50.928;4.440;2023-09-07T14:18:06;45.40;42.50
21246;DHT22;10781;50.928;4.440;2023-09-07T14:20:33;43.60;43.60
21246;DHT22;10781;50.928;4.440;2023-09-07T14:22:59;43.40;45.10
21246;DHT22;10781;50.928;4.440;2023-09-07T14:25:26;44.10;42.70
21246;DHT22;10781;50.928;4.440;2023-09-07T14:27:52;43.10;44.20
21246;DHT22;10781;50.928;4.440;2023-09-07T14:30:18;43.60;43.70
21246;DHT22;10781;50.928;4.440;2023-09-07T14:32:44;41.60;46.10
21246;DHT22;10781;50.928;4.440;2023-09-07T14:35:12;42.60;46.40
21246;DHT22;10781;50.928;4.440;2023-09-07T14:37:38;43.70;45.40
21246;DHT22;10781;50.928;4.440;2023-09-07T14:40:04;44.80;44.50
21246;DHT22;10781;50.928;4.440;2023-09-07T14:42:30;45.00;45.00
21246;DHT22;10781;50.928;4.440;2023-09-07T14:44:55;43.70;46.00
21246;DHT22;10781;50.928;4.440;2023-09-07T14:47:23;43.40;45.50
21246;DHT22;10781;50.928;4.440;2023-09-07T14:49:51;42.60;45.30
21246;DHT22;10781;50.928;4.440;2023-09-07T14:52:18;40.70;46.50
21246;DHT22;10781;50.928;4.440;2023-09-07T14:54:43;40.30;48.10
21246;DHT22;10781;50.928;4.440;2023-09-07T14:57:09;38.90;49.20
21246;DHT22;10781;50.928;4.440;2023-09-07T14:59:35;40.30;48.40
21246;DHT22;10781;50.928;4.440;2023-09-07T15:02:05;41.90;48.40
21246;DHT22;10781;50.928;4.440;2023-09-07T15:04:31;43.00;47.60
21246;DHT22;10781;50.928;4.440;2023-09-07T15:06:57;43.40;47.20
21246;DHT22;10781;50.928;4.440;2023-09-07T15:09:22;43.70;46.00
21246;DHT22;10781;50.928;4.440;2023-09-07T15:11:48;43.10;45.80
21246;DHT22;10781;50.928;4.440;2023-09-07T15:14:14;42.50;46.40
21246;DHT22;10781;50.928;4.440;2023-09-07T15:16:39;42.30;48.30
21246;DHT22;10781;50.928;4.440;2023-09-07T15:19:05;43.20;47.00
21246;DHT22;10781;50.928;4.440;2023-09-07T15:21:31;41.80;46.50
21246;DHT22;10781;50.928;4.440;2023-09-07T15:23:56;40.80;48.10
21246;DHT22;10781;50.928;4.440;2023-09-07T15:26:23;41.20;49.10
21246;DHT22;10781;50.928;4.440;2023-09-07T15:28:49;41.40;48.50